Juan de Fuca Strait - central strait: Past 24 Hour Conditions

 

Sentry Shoal - 46131

09:00 AM PDT 21 September 2018Buoy position: 49.92N 125.0W
Disclaimer

This table is a summary of hourly weather conditions for the past 24 hours.
Please note that these observations might not always be representative of weather conditions over their associated marine area.

Date / Time
(PDT)
Wind(knots) Wave height(m) Wave period(s) Pressure(kPa) Air tempC) Water tempC)
21 September 2018
9:00 E 16 gust 19 0.6 4.0 101.2 13 13
8:00 NE 8 gust 8 0.6 4.0 101.3 12 13
7:00 NE 8 gust 10 0.6 4.0 101.3 12 13
6:00 E 12 gust 14 0.5 4.0 101.3 12 13
5:00 E 14 gust 16 0.5 3.0 101.3 12 13
4:00 ESE 14 gust 16 0.5 3.0 101.4 12 13
3:00 ESE 14 gust 16 0.6 3.0 101.4 12 13
2:00 ESE 14 gust 18 0.6 4.0 101.4 12 13
1:00 ESE 14 gust 16 0.7 3.0 101.5 12 13
0:00 ESE 16 gust 18 0.8 4.0 101.6 12 13
20 September 2018
23:00 ESE 18 gust 21 1.0 5.0 101.6 12 13
22:00 ESE 19 gust 21 0.9 4.0 101.6 13 13
21:00 ESE 16 gust 18 0.8 4.0 101.6 13 13
20:00 ESE 18 gust 19 0.8 4.0 101.6 13 13
19:00 ESE 14 gust 16 0.7 4.0 101.7 13 13
18:00 ESE 16 gust 19 0.7 4.0 101.7 13 13
17:00 ESE 16 gust 19 0.6 3.0 101.7 13 13
16:00 E 14 gust 18 0.5 3.0 101.8 13 14
15:00 ESE 14 gust 16 0.2 2.0 101.9 13 14
14:00 SE 10 gust 10 0.2 2.0 102.0 13 14
13:00 SE 8 gust 10 0.2 2.0 102.0 13 15
12:00 S 2 gust 4 0.1 2.0 102.0 12 15
11:00 SW 2 gust 4 0.1 4.0 102.0 12 15
10:00 ESE 4 gust 6 0.1 3.0 102.0 13 15
9:00 NE 4 gust 4 0.1 2.0 102.0 12 15

Zoom-in to make a selection

Map of Pacific - Georgia Basin marine weather areas Sentry Shoal - 46131 Halibut Bank - 46146 La Perouse Bank - 46206 Discovery Island Esquimalt Harbour Kelp Reefs Malahat Race Rocks Lightstation Saturna Island Sheringham Point University of Victoria Victoria Gonzales Victoria Int'l Airport Ballenas Islands Campbell River Airport Comox Airport Entrance Island Fanny Island Nanaimo Airport Sisters Islets Estevan Point Port Alberni Tofino Airport Grief Point Howe Sound - Pam Rocks Powell River Airport Sechelt Squamish Airport Point Atkinson Sand Heads Lightstation Tsawwassen Ferry Terminal Vancouver Int'l Airport Vancouver Harbour West Vancouver
Legend:
buoy Buoy
land station Land Station

Pacific - Georgia Basin Area

Another Region

What we are doing

Features

Follow us on Twitter!

Get timely local #weather alerts directly to your Twitter feed

Be Air Aware

Be Air Aware

Be weather wise! 

Be weather wise!

Date modified: